SVR280 URSS-UUDD
Flight info
| Callsign | SVR280 |
|---|---|
| Flight time | 3h 7m |
| Altitude | 35000 |
| Route | IRGID1D IRGID A944 GUBOR G487 ERSAR DCT BEMES DCT VULFI DCT TUVGI DCT EVZUN DCT ZIZAR DCT VAZLU DCT UZZID DCT NOKLI N72 WGD G481 OBABI DCT VUVNE DCT GEKPA L736 OLOPI OLOPI3L |
| Aircraft | A321/M-SDE3FGHIRWY/LB1 |
Departure
| Time | 2026-05-07 16:39 |
|---|---|
| Airport | Sochi International Airport (URSS) |
Arrival
| Time | 2026-05-07 19:46 |
|---|---|
| Airport | Domodedovo International Airport (UUDD) |
| Time | Latitude | Longitude | Altitude | Speed | Heading |
|---|---|---|---|---|---|
| 2026-05-07 16:16 | 43.44793 | 39.94311 | 75 ft | 0 kts | 334° |
| 2026-05-07 16:29 | 43.44778 | 39.94322 | 66 ft | 2 kts | 336° |
| 2026-05-07 16:29 | 43.44763 | 39.94331 | 64 ft | 2 kts | 334° |
| 2026-05-07 16:29 | 43.44748 | 39.94341 | 65 ft | 2 kts | 334° |
| 2026-05-07 16:30 | 43.44733 | 39.94351 | 65 ft | 2 kts | 335° |
| 2026-05-07 16:30 | 43.44718 | 39.94361 | 64 ft | 2 kts | 342° |
| 2026-05-07 16:30 | 43.44702 | 39.94364 | 64 ft | 2 kts | 4° |
| 2026-05-07 16:30 | 43.44686 | 39.94361 | 64 ft | 2 kts | 27° |
| 2026-05-07 16:31 | 43.44674 | 39.94350 | 64 ft | 1 kts | 57° |
| 2026-05-07 16:31 | 43.44672 | 39.94348 | 64 ft | 0 kts | 62° |
| 2026-05-07 16:33 | 43.44674 | 39.94351 | 64 ft | 1 kts | 63° |
| 2026-05-07 16:33 | 43.44677 | 39.94361 | 65 ft | 2 kts | 63° |
| 2026-05-07 16:34 | 43.44698 | 39.94421 | 67 ft | 10 kts | 64° |
| 2026-05-07 16:34 | 43.44729 | 39.94506 | 75 ft | 10 kts | 65° |
| 2026-05-07 16:34 | 43.44765 | 39.94614 | 67 ft | 15 kts | 65° |
| 2026-05-07 16:34 | 43.44816 | 39.94765 | 67 ft | 19 kts | 63° |
| 2026-05-07 16:35 | 43.44870 | 39.94924 | 68 ft | 17 kts | 65° |
| 2026-05-07 16:35 | 43.44922 | 39.95073 | 82 ft | 18 kts | 64° |
| 2026-05-07 16:35 | 43.44974 | 39.95218 | 87 ft | 16 kts | 66° |
| 2026-05-07 16:35 | 43.45025 | 39.95366 | 92 ft | 19 kts | 65° |
| 2026-05-07 16:36 | 43.45101 | 39.95524 | 93 ft | 19 kts | 33° |
| 2026-05-07 16:36 | 43.45222 | 39.95634 | 91 ft | 22 kts | 50° |
| 2026-05-07 16:36 | 43.45296 | 39.95810 | 97 ft | 18 kts | 68° |
| 2026-05-07 16:36 | 43.45270 | 39.95932 | 93 ft | 14 kts | 130° |
| 2026-05-07 16:37 | 43.45223 | 39.95944 | 90 ft | 10 kts | 197° |
| 2026-05-07 16:37 | 43.45202 | 39.95930 | 90 ft | 0 kts | 208° |
| 2026-05-07 16:37 | 43.45193 | 39.95924 | 89 ft | 4 kts | 208° |
| 2026-05-07 16:37 | 43.45115 | 39.95865 | 88 ft | 19 kts | 208° |
| 2026-05-07 16:38 | 43.45028 | 39.95739 | 89 ft | 18 kts | 244° |
| 2026-05-07 16:38 | 43.44923 | 39.95436 | 91 ft | 67 kts | 245° |
| 2026-05-07 16:38 | 43.44619 | 39.94563 | 70 ft | 131 kts | 243° |
| 2026-05-07 16:38 | 43.44169 | 39.93183 | 90 ft | 180 kts | 251° |
| 2026-05-07 16:39 | 43.43689 | 39.91610 | 790 ft | 176 kts | 248° |
| 2026-05-07 16:39 | 43.43315 | 39.90056 | 1323 ft | 174 kts | 246° |
| 2026-05-07 16:39 | 43.43152 | 39.88398 | 1697 ft | 179 kts | 269° |
| 2026-05-07 16:39 | 43.43251 | 39.86575 | 1860 ft | 200 kts | 280° |
| 2026-05-07 16:40 | 43.43650 | 39.84678 | 2000 ft | 219 kts | 292° |
| 2026-05-07 16:40 | 43.44420 | 39.82753 | 2106 ft | 243 kts | 306° |
| 2026-05-07 16:40 | 43.45514 | 39.80837 | 2493 ft | 256 kts | 308° |
| 2026-05-07 16:40 | 43.46601 | 39.78925 | 3101 ft | 259 kts | 307° |
| 2026-05-07 16:41 | 43.47718 | 39.76942 | 3869 ft | 262 kts | 308° |
| 2026-05-07 16:41 | 43.48831 | 39.74961 | 4571 ft | 263 kts | 308° |
| 2026-05-07 16:41 | 43.49956 | 39.72958 | 5237 ft | 265 kts | 308° |
| 2026-05-07 16:41 | 43.51091 | 39.70937 | 5870 ft | 267 kts | 308° |
| 2026-05-07 16:42 | 43.52229 | 39.68908 | 6512 ft | 270 kts | 309° |
| 2026-05-07 16:42 | 43.53385 | 39.66850 | 7112 ft | 272 kts | 309° |
| 2026-05-07 16:42 | 43.54545 | 39.64780 | 7699 ft | 275 kts | 308° |
| 2026-05-07 16:42 | 43.55734 | 39.62657 | 8305 ft | 278 kts | 308° |
| 2026-05-07 16:43 | 43.56905 | 39.60562 | 8890 ft | 280 kts | 308° |
| 2026-05-07 16:43 | 43.58100 | 39.58421 | 9492 ft | 283 kts | 308° |
| 2026-05-07 16:43 | 43.59308 | 39.56259 | 10083 ft | 286 kts | 308° |
| 2026-05-07 16:43 | 43.60745 | 39.54269 | 10256 ft | 303 kts | 330° |
| 2026-05-07 16:44 | 43.62796 | 39.53422 | 10383 ft | 320 kts | 360° |
| 2026-05-07 16:44 | 43.65020 | 39.54069 | 10509 ft | 337 kts | 23° |
| 2026-05-07 16:44 | 43.67162 | 39.55560 | 10658 ft | 353 kts | 28° |
| 2026-05-07 16:44 | 43.69373 | 39.57211 | 11076 ft | 359 kts | 30° |
| 2026-05-07 16:45 | 43.71424 | 39.59136 | 11589 ft | 362 kts | 40° |
| 2026-05-07 16:45 | 43.73104 | 39.61722 | 12127 ft | 365 kts | 57° |
| 2026-05-07 16:45 | 43.74156 | 39.64922 | 12681 ft | 367 kts | 75° |
| 2026-05-07 16:45 | 43.74671 | 39.68400 | 13241 ft | 370 kts | 79° |
| 2026-05-07 16:46 | 43.75159 | 39.71903 | 13801 ft | 372 kts | 79° |
| 2026-05-07 16:46 | 43.75667 | 39.75425 | 14308 ft | 375 kts | 78° |
| 2026-05-07 16:46 | 43.76192 | 39.78975 | 14807 ft | 377 kts | 78° |
| 2026-05-07 16:46 | 43.76727 | 39.82538 | 15302 ft | 380 kts | 78° |
| 2026-05-07 16:47 | 43.77268 | 39.86126 | 15782 ft | 383 kts | 78° |
| 2026-05-07 16:47 | 43.77816 | 39.89742 | 16272 ft | 386 kts | 78° |
| 2026-05-07 16:47 | 43.78181 | 39.92167 | 16623 ft | 387 kts | 78° |
| 2026-05-07 16:47 | 43.78695 | 39.95835 | 17109 ft | 390 kts | 79° |
| 2026-05-07 16:48 | 43.79176 | 39.99536 | 17585 ft | 393 kts | 79° |
| 2026-05-07 16:48 | 43.79641 | 40.03272 | 18070 ft | 396 kts | 79° |
| 2026-05-07 16:48 | 43.80108 | 40.07046 | 18556 ft | 398 kts | 79° |
| 2026-05-07 16:48 | 43.80583 | 40.10847 | 18979 ft | 401 kts | 79° |
| 2026-05-07 16:49 | 43.81066 | 40.14653 | 19381 ft | 403 kts | 79° |
| 2026-05-07 16:49 | 43.81556 | 40.18486 | 19796 ft | 405 kts | 79° |
| 2026-05-07 16:49 | 43.82050 | 40.22330 | 20208 ft | 407 kts | 79° |
| 2026-05-07 16:49 | 43.82547 | 40.26207 | 20615 ft | 410 kts | 79° |
| 2026-05-07 16:50 | 43.83041 | 40.30095 | 21000 ft | 412 kts | 79° |
| 2026-05-07 16:50 | 43.83536 | 40.34016 | 21405 ft | 414 kts | 79° |
| 2026-05-07 16:50 | 43.84030 | 40.37950 | 21768 ft | 416 kts | 79° |
| 2026-05-07 16:50 | 43.84524 | 40.41906 | 22148 ft | 418 kts | 79° |
| 2026-05-07 16:51 | 43.85022 | 40.45892 | 22500 ft | 421 kts | 79° |
| 2026-05-07 16:51 | 43.85521 | 40.49890 | 22852 ft | 423 kts | 79° |
| 2026-05-07 16:51 | 43.86025 | 40.53924 | 23212 ft | 425 kts | 79° |
| 2026-05-07 16:51 | 43.86529 | 40.57971 | 23555 ft | 428 kts | 79° |
| 2026-05-07 16:52 | 43.87035 | 40.62043 | 23884 ft | 430 kts | 79° |
| 2026-05-07 16:52 | 43.87542 | 40.66131 | 24203 ft | 431 kts | 79° |
| 2026-05-07 16:52 | 43.88123 | 40.70217 | 24499 ft | 432 kts | 74° |
| 2026-05-07 16:52 | 43.89113 | 40.74158 | 24802 ft | 433 kts | 66° |
| 2026-05-07 16:53 | 43.90319 | 40.77992 | 25096 ft | 435 kts | 66° |
| 2026-05-07 16:53 | 43.91523 | 40.81839 | 25388 ft | 436 kts | 66° |
| 2026-05-07 16:53 | 43.92728 | 40.85707 | 25685 ft | 438 kts | 66° |
| 2026-05-07 16:53 | 43.93932 | 40.89589 | 25992 ft | 439 kts | 66° |
| 2026-05-07 16:54 | 43.95137 | 40.93492 | 26292 ft | 440 kts | 66° |
| 2026-05-07 16:54 | 43.96343 | 40.97402 | 26587 ft | 442 kts | 66° |
| 2026-05-07 16:54 | 43.97412 | 41.01411 | 26859 ft | 443 kts | 76° |
| 2026-05-07 16:54 | 43.97769 | 41.05604 | 27110 ft | 446 kts | 88° |
| 2026-05-07 16:55 | 43.97829 | 41.09966 | 27374 ft | 447 kts | 88° |
| 2026-05-07 16:55 | 43.97870 | 41.14237 | 27662 ft | 449 kts | 88° |
| 2026-05-07 16:55 | 43.97900 | 41.18583 | 27942 ft | 450 kts | 89° |
| 2026-05-07 16:55 | 43.97925 | 41.22945 | 28237 ft | 452 kts | 89° |
| 2026-05-07 16:56 | 43.97950 | 41.27298 | 28633 ft | 450 kts | 89° |
| 2026-05-07 16:56 | 43.97976 | 41.31642 | 29047 ft | 449 kts | 88° |
| 2026-05-07 16:56 | 43.98037 | 41.40269 | 29878 ft | 446 kts | 88° |
| 2026-05-07 16:57 | 43.98071 | 41.44565 | 30280 ft | 445 kts | 88° |
| 2026-05-07 16:57 | 43.98103 | 41.48854 | 30605 ft | 444 kts | 88° |
| 2026-05-07 16:57 | 43.98130 | 41.53147 | 30902 ft | 443 kts | 89° |
| 2026-05-07 16:57 | 43.98149 | 41.57418 | 31189 ft | 443 kts | 89° |
| 2026-05-07 16:58 | 43.98165 | 41.61696 | 31472 ft | 443 kts | 89° |
| 2026-05-07 16:58 | 43.98178 | 41.65968 | 31739 ft | 442 kts | 89° |
| 2026-05-07 16:58 | 43.98196 | 41.70237 | 32011 ft | 442 kts | 89° |
| 2026-05-07 16:58 | 43.98216 | 41.74499 | 32287 ft | 442 kts | 89° |
| 2026-05-07 16:59 | 43.98235 | 41.78762 | 32549 ft | 442 kts | 89° |
| 2026-05-07 16:59 | 43.98250 | 41.83030 | 32798 ft | 442 kts | 89° |
| 2026-05-07 16:59 | 43.98263 | 41.87293 | 33040 ft | 441 kts | 89° |
| 2026-05-07 16:59 | 43.98273 | 41.91553 | 33295 ft | 441 kts | 89° |
| 2026-05-07 17:00 | 43.98282 | 41.95801 | 33533 ft | 441 kts | 90° |
| 2026-05-07 17:00 | 43.98291 | 42.00063 | 33762 ft | 441 kts | 90° |
| 2026-05-07 17:00 | 43.98297 | 42.04325 | 33995 ft | 441 kts | 90° |
| 2026-05-07 17:00 | 43.98302 | 42.08573 | 34221 ft | 441 kts | 90° |
| 2026-05-07 17:01 | 43.98305 | 42.12830 | 34385 ft | 441 kts | 90° |
| 2026-05-07 17:01 | 43.98305 | 42.17089 | 34528 ft | 441 kts | 90° |
| 2026-05-07 17:01 | 43.98305 | 42.21300 | 34677 ft | 442 kts | 90° |
| 2026-05-07 17:01 | 43.98304 | 42.25633 | 34834 ft | 442 kts | 90° |
| 2026-05-07 17:02 | 43.98301 | 42.29841 | 34972 ft | 443 kts | 90° |
| 2026-05-07 17:02 | 43.98294 | 42.34137 | 35136 ft | 443 kts | 90° |
| 2026-05-07 17:02 | 43.98273 | 42.42728 | 35202 ft | 447 kts | 90° |
| 2026-05-07 17:03 | 43.98248 | 42.51381 | 35198 ft | 448 kts | 90° |
| 2026-05-07 17:03 | 43.98223 | 42.60027 | 35194 ft | 448 kts | 90° |
| 2026-05-07 17:04 | 43.98194 | 42.68691 | 35191 ft | 449 kts | 90° |
| 2026-05-07 17:04 | 43.98150 | 42.77366 | 35184 ft | 449 kts | 91° |
| 2026-05-07 17:05 | 43.98099 | 42.86040 | 35174 ft | 450 kts | 91° |
| 2026-05-07 17:05 | 43.98042 | 42.94741 | 35172 ft | 450 kts | 91° |
| 2026-05-07 17:06 | 43.97980 | 43.03425 | 35170 ft | 450 kts | 91° |
| 2026-05-07 17:06 | 43.97906 | 43.12131 | 35166 ft | 451 kts | 91° |
| 2026-05-07 17:07 | 43.97831 | 43.20834 | 35161 ft | 451 kts | 91° |
| 2026-05-07 17:07 | 43.97756 | 43.29547 | 35157 ft | 451 kts | 91° |
| 2026-05-07 17:08 | 43.97665 | 43.38260 | 35155 ft | 452 kts | 91° |
| 2026-05-07 17:08 | 43.97572 | 43.46992 | 35152 ft | 452 kts | 91° |
| 2026-05-07 17:09 | 43.97472 | 43.55718 | 35143 ft | 453 kts | 91° |
| 2026-05-07 17:09 | 43.97362 | 43.64457 | 35134 ft | 453 kts | 91° |
| 2026-05-07 17:10 | 43.97247 | 43.73209 | 35129 ft | 453 kts | 91° |
| 2026-05-07 17:10 | 43.97122 | 43.81952 | 35127 ft | 453 kts | 91° |
| 2026-05-07 17:11 | 43.96988 | 43.90711 | 35128 ft | 453 kts | 91° |
| 2026-05-07 17:11 | 43.96850 | 43.99403 | 35122 ft | 454 kts | 92° |
| 2026-05-07 17:12 | 43.96704 | 44.08163 | 35126 ft | 454 kts | 92° |
| 2026-05-07 17:12 | 43.96560 | 44.16928 | 35123 ft | 454 kts | 92° |
| 2026-05-07 17:13 | 43.96412 | 44.25688 | 35126 ft | 455 kts | 92° |
| 2026-05-07 17:13 | 43.96247 | 44.34473 | 35123 ft | 455 kts | 92° |
| 2026-05-07 17:14 | 43.96072 | 44.43263 | 35133 ft | 456 kts | 92° |
| 2026-05-07 17:14 | 43.95898 | 44.52059 | 35135 ft | 456 kts | 92° |
| 2026-05-07 17:15 | 43.95719 | 44.60884 | 35133 ft | 457 kts | 92° |
| 2026-05-07 17:15 | 43.95528 | 44.69704 | 35136 ft | 458 kts | 92° |
| 2026-05-07 17:16 | 43.95326 | 44.78521 | 35137 ft | 458 kts | 92° |
| 2026-05-07 17:16 | 43.95114 | 44.87380 | 35135 ft | 459 kts | 92° |
| 2026-05-07 17:17 | 43.94903 | 44.96230 | 35140 ft | 459 kts | 92° |
| 2026-05-07 17:17 | 43.94684 | 45.05076 | 35101 ft | 457 kts | 92° |
| 2026-05-07 17:18 | 43.94456 | 45.13891 | 35120 ft | 457 kts | 92° |
| 2026-05-07 17:18 | 43.94233 | 45.22641 | 35128 ft | 457 kts | 92° |
| 2026-05-07 17:19 | 43.93998 | 45.31512 | 35126 ft | 457 kts | 92° |
| 2026-05-07 17:19 | 43.93749 | 45.40273 | 35123 ft | 458 kts | 92° |
| 2026-05-07 17:20 | 43.93498 | 45.49097 | 35119 ft | 459 kts | 92° |
| 2026-05-07 17:20 | 43.93239 | 45.57950 | 35120 ft | 459 kts | 92° |
| 2026-05-07 17:21 | 43.92973 | 45.66809 | 35116 ft | 460 kts | 93° |
| 2026-05-07 17:21 | 43.92705 | 45.75677 | 35111 ft | 460 kts | 93° |
| 2026-05-07 17:22 | 43.92416 | 45.84562 | 35109 ft | 461 kts | 93° |
| 2026-05-07 17:22 | 43.92523 | 45.93442 | 35103 ft | 462 kts | 84° |
| 2026-05-07 17:23 | 43.93188 | 46.02306 | 35099 ft | 462 kts | 84° |
| 2026-05-07 17:23 | 43.93834 | 46.11176 | 35096 ft | 463 kts | 85° |
| 2026-05-07 17:24 | 43.94466 | 46.20079 | 35098 ft | 464 kts | 85° |
| 2026-05-07 17:24 | 43.95102 | 46.28983 | 35098 ft | 464 kts | 85° |
| 2026-05-07 17:25 | 43.95735 | 46.37907 | 35101 ft | 464 kts | 85° |
| 2026-05-07 17:25 | 43.96357 | 46.46836 | 35099 ft | 465 kts | 85° |
| 2026-05-07 17:26 | 43.96968 | 46.55752 | 35098 ft | 465 kts | 85° |
| 2026-05-07 17:26 | 43.97579 | 46.64715 | 35096 ft | 466 kts | 85° |
| 2026-05-07 17:27 | 43.98186 | 46.73672 | 35092 ft | 466 kts | 85° |
| 2026-05-07 17:27 | 43.98777 | 46.82636 | 35090 ft | 467 kts | 86° |
| 2026-05-07 17:28 | 43.99394 | 46.91609 | 35088 ft | 467 kts | 81° |
| 2026-05-07 17:28 | 44.00270 | 46.95945 | 35086 ft | 468 kts | 66° |
| 2026-05-07 17:28 | 44.01917 | 46.99828 | 35080 ft | 467 kts | 50° |
| 2026-05-07 17:29 | 44.04204 | 47.02932 | 35076 ft | 466 kts | 34° |
| 2026-05-07 17:29 | 44.07019 | 47.05124 | 35064 ft | 464 kts | 19° |
| 2026-05-07 17:29 | 44.13176 | 47.07841 | 35054 ft | 465 kts | 16° |
| 2026-05-07 17:30 | 44.19369 | 47.10520 | 35060 ft | 466 kts | 17° |
| 2026-05-07 17:30 | 44.25576 | 47.13236 | 35065 ft | 467 kts | 17° |
| 2026-05-07 17:31 | 44.31776 | 47.15952 | 35067 ft | 468 kts | 17° |
| 2026-05-07 17:31 | 44.37990 | 47.18678 | 35070 ft | 468 kts | 17° |
| 2026-05-07 17:32 | 44.43152 | 47.20942 | 35068 ft | 468 kts | 17° |
| 2026-05-07 17:32 | 44.49372 | 47.23677 | 35066 ft | 468 kts | 17° |
| 2026-05-07 17:33 | 44.55589 | 47.26436 | 35058 ft | 468 kts | 17° |
| 2026-05-07 17:33 | 44.61800 | 47.29190 | 35055 ft | 468 kts | 17° |
| 2026-05-07 17:34 | 44.68011 | 47.31929 | 35048 ft | 468 kts | 17° |
| 2026-05-07 17:34 | 44.74212 | 47.34676 | 35050 ft | 467 kts | 17° |
| 2026-05-07 17:35 | 44.80373 | 47.37419 | 35046 ft | 467 kts | 17° |
| 2026-05-07 17:35 | 44.86571 | 47.40190 | 35045 ft | 467 kts | 17° |
| 2026-05-07 17:36 | 44.92758 | 47.42956 | 35049 ft | 466 kts | 17° |
| 2026-05-07 17:36 | 44.98942 | 47.45731 | 35051 ft | 465 kts | 17° |
| 2026-05-07 17:37 | 45.05108 | 47.48503 | 35046 ft | 464 kts | 18° |
| 2026-05-07 17:37 | 45.11268 | 47.51285 | 35035 ft | 463 kts | 18° |
| 2026-05-07 17:38 | 45.17356 | 47.54036 | 35073 ft | 462 kts | 17° |
| 2026-05-07 17:38 | 45.23477 | 47.56808 | 34999 ft | 460 kts | 17° |
| 2026-05-07 17:39 | 45.29584 | 47.59572 | 35000 ft | 460 kts | 18° |
| 2026-05-07 17:39 | 45.35690 | 47.62337 | 34987 ft | 460 kts | 18° |
| 2026-05-07 17:40 | 45.41790 | 47.65111 | 35001 ft | 459 kts | 18° |
| 2026-05-07 17:40 | 45.47865 | 47.67879 | 35004 ft | 458 kts | 18° |
| 2026-05-07 17:41 | 45.53929 | 47.70652 | 35001 ft | 457 kts | 18° |
| 2026-05-07 17:41 | 45.59988 | 47.73439 | 34996 ft | 457 kts | 18° |
| 2026-05-07 17:42 | 45.65998 | 47.76211 | 34985 ft | 456 kts | 18° |
| 2026-05-07 17:42 | 45.72040 | 47.79001 | 34982 ft | 456 kts | 18° |
| 2026-05-07 17:43 | 45.78072 | 47.81773 | 34979 ft | 455 kts | 18° |
| 2026-05-07 17:43 | 45.84095 | 47.84552 | 34971 ft | 455 kts | 18° |
| 2026-05-07 17:44 | 45.90112 | 47.87354 | 34967 ft | 454 kts | 18° |
| 2026-05-07 17:44 | 45.96163 | 47.90175 | 34960 ft | 454 kts | 18° |
| 2026-05-07 17:45 | 46.02249 | 47.92225 | 34956 ft | 454 kts | 1° |
| 2026-05-07 17:45 | 46.05389 | 47.91833 | 34949 ft | 454 kts | 347° |
| 2026-05-07 17:45 | 46.08379 | 47.90384 | 34948 ft | 454 kts | 333° |
| 2026-05-07 17:46 | 46.11043 | 47.87970 | 34941 ft | 453 kts | 320° |
| 2026-05-07 17:46 | 46.13235 | 47.84726 | 34937 ft | 453 kts | 306° |
| 2026-05-07 17:46 | 46.16712 | 47.77109 | 34928 ft | 455 kts | 303° |
| 2026-05-07 17:47 | 46.20165 | 47.69434 | 34923 ft | 456 kts | 303° |
| 2026-05-07 17:47 | 46.23603 | 47.61769 | 34927 ft | 458 kts | 303° |
| 2026-05-07 17:48 | 46.27063 | 47.54045 | 34936 ft | 458 kts | 303° |
| 2026-05-07 17:48 | 46.30544 | 47.46273 | 34941 ft | 459 kts | 303° |
| 2026-05-07 17:49 | 46.34005 | 47.38524 | 34946 ft | 459 kts | 303° |
| 2026-05-07 17:49 | 46.37464 | 47.30742 | 34957 ft | 459 kts | 303° |
| 2026-05-07 17:50 | 46.40911 | 47.22959 | 34961 ft | 459 kts | 303° |
| 2026-05-07 17:50 | 46.44336 | 47.15226 | 34963 ft | 459 kts | 303° |
| 2026-05-07 17:51 | 46.47771 | 47.07434 | 34966 ft | 458 kts | 303° |
| 2026-05-07 17:51 | 46.51202 | 46.99631 | 34971 ft | 458 kts | 304° |
| 2026-05-07 17:52 | 46.54619 | 46.91840 | 34972 ft | 458 kts | 303° |
| 2026-05-07 17:52 | 46.58039 | 46.84025 | 34979 ft | 458 kts | 303° |
| 2026-05-07 17:53 | 46.61448 | 46.76214 | 34981 ft | 457 kts | 303° |
| 2026-05-07 17:53 | 46.64852 | 46.68390 | 34980 ft | 457 kts | 303° |
| 2026-05-07 17:54 | 46.68242 | 46.60561 | 34984 ft | 457 kts | 303° |
| 2026-05-07 17:54 | 46.71624 | 46.52735 | 34986 ft | 456 kts | 303° |
| 2026-05-07 17:55 | 46.75002 | 46.44898 | 34989 ft | 456 kts | 303° |
| 2026-05-07 17:55 | 46.78340 | 46.37109 | 34991 ft | 456 kts | 303° |
| 2026-05-07 17:56 | 46.81725 | 46.29215 | 34991 ft | 455 kts | 303° |
| 2026-05-07 17:56 | 46.85057 | 46.21415 | 34993 ft | 455 kts | 303° |
| 2026-05-07 17:57 | 46.87857 | 46.14852 | 34994 ft | 454 kts | 303° |
| 2026-05-07 17:57 | 46.92118 | 46.06149 | 34996 ft | 451 kts | 316° |
| 2026-05-07 17:58 | 46.97140 | 46.00755 | 34994 ft | 448 kts | 335° |
| 2026-05-07 17:58 | 47.02768 | 45.96857 | 34993 ft | 448 kts | 335° |
| 2026-05-07 17:59 | 47.08391 | 45.92925 | 34991 ft | 448 kts | 335° |
| 2026-05-07 17:59 | 47.14004 | 45.88964 | 34988 ft | 448 kts | 335° |
| 2026-05-07 18:00 | 47.19619 | 45.85001 | 34990 ft | 447 kts | 335° |
| 2026-05-07 18:00 | 47.25233 | 45.81044 | 35002 ft | 447 kts | 335° |
| 2026-05-07 18:01 | 47.30843 | 45.77073 | 34996 ft | 447 kts | 335° |
| 2026-05-07 18:01 | 47.36406 | 45.73122 | 34987 ft | 446 kts | 335° |
| 2026-05-07 18:02 | 47.44804 | 45.67178 | 34985 ft | 446 kts | 335° |
| 2026-05-07 18:03 | 47.50399 | 45.63198 | 34988 ft | 446 kts | 335° |
| 2026-05-07 18:03 | 47.55984 | 45.59216 | 34984 ft | 446 kts | 335° |
| 2026-05-07 18:04 | 47.61563 | 45.55225 | 34990 ft | 446 kts | 335° |
| 2026-05-07 18:04 | 47.67157 | 45.51214 | 34984 ft | 445 kts | 335° |
| 2026-05-07 18:05 | 47.72731 | 45.47204 | 34987 ft | 445 kts | 335° |
| 2026-05-07 18:05 | 47.78299 | 45.43128 | 34986 ft | 446 kts | 330° |
| 2026-05-07 18:06 | 47.83209 | 45.37504 | 34987 ft | 447 kts | 318° |
| 2026-05-07 18:06 | 47.87810 | 45.31267 | 34987 ft | 447 kts | 319° |
| 2026-05-07 18:07 | 47.92424 | 45.25034 | 34979 ft | 447 kts | 319° |
| 2026-05-07 18:07 | 47.96997 | 45.18842 | 34985 ft | 447 kts | 318° |
| 2026-05-07 18:08 | 48.01600 | 45.12586 | 34979 ft | 447 kts | 320° |
| 2026-05-07 18:08 | 48.06651 | 45.07190 | 34975 ft | 446 kts | 327° |
| 2026-05-07 18:09 | 48.11811 | 45.02027 | 34989 ft | 446 kts | 327° |
| 2026-05-07 18:09 | 48.16975 | 44.96843 | 34988 ft | 446 kts | 327° |
| 2026-05-07 18:10 | 48.22122 | 44.91651 | 34991 ft | 446 kts | 327° |
| 2026-05-07 18:10 | 48.27271 | 44.86442 | 34988 ft | 446 kts | 327° |
| 2026-05-07 18:11 | 48.32416 | 44.81223 | 34990 ft | 446 kts | 327° |
| 2026-05-07 18:11 | 48.37565 | 44.76001 | 34989 ft | 446 kts | 327° |
| 2026-05-07 18:12 | 48.42705 | 44.70766 | 34990 ft | 446 kts | 327° |
| 2026-05-07 18:12 | 48.47851 | 44.65510 | 34991 ft | 446 kts | 327° |
| 2026-05-07 18:13 | 48.52988 | 44.60251 | 35005 ft | 446 kts | 327° |
| 2026-05-07 18:13 | 48.58090 | 44.55007 | 35010 ft | 446 kts | 327° |
| 2026-05-07 18:14 | 48.63221 | 44.49727 | 35026 ft | 446 kts | 327° |
| 2026-05-07 18:14 | 48.68345 | 44.44441 | 35041 ft | 446 kts | 327° |
| 2026-05-07 18:15 | 48.73475 | 44.39141 | 35049 ft | 446 kts | 327° |
| 2026-05-07 18:15 | 48.78719 | 44.34125 | 35046 ft | 444 kts | 336° |
| 2026-05-07 18:16 | 48.84484 | 44.30757 | 35049 ft | 443 kts | 340° |
| 2026-05-07 18:16 | 48.90231 | 44.27518 | 35044 ft | 443 kts | 340° |
| 2026-05-07 18:17 | 48.96044 | 44.24215 | 35036 ft | 443 kts | 340° |
| 2026-05-07 18:17 | 49.01771 | 44.20950 | 35021 ft | 443 kts | 340° |
| 2026-05-07 18:18 | 49.07541 | 44.17660 | 35011 ft | 442 kts | 340° |
| 2026-05-07 18:18 | 49.13300 | 44.14377 | 35002 ft | 442 kts | 340° |
| 2026-05-07 18:19 | 49.18125 | 44.11624 | 35000 ft | 442 kts | 340° |
| 2026-05-07 18:19 | 49.23880 | 44.08325 | 35000 ft | 441 kts | 340° |
| 2026-05-07 18:20 | 49.29590 | 44.05028 | 34996 ft | 441 kts | 340° |
| 2026-05-07 18:20 | 49.35325 | 44.01717 | 34997 ft | 440 kts | 340° |
| 2026-05-07 18:21 | 49.41059 | 43.98407 | 34995 ft | 440 kts | 340° |
| 2026-05-07 18:21 | 49.46789 | 43.95089 | 34995 ft | 440 kts | 340° |
| 2026-05-07 18:22 | 49.52572 | 43.92040 | 34998 ft | 439 kts | 349° |
| 2026-05-07 18:22 | 49.58583 | 43.90364 | 35001 ft | 438 kts | 351° |
| 2026-05-07 18:23 | 49.64560 | 43.88727 | 34995 ft | 438 kts | 351° |
| 2026-05-07 18:23 | 49.70560 | 43.87065 | 34997 ft | 438 kts | 351° |
| 2026-05-07 18:24 | 49.76565 | 43.85396 | 35004 ft | 438 kts | 351° |
| 2026-05-07 18:24 | 49.79570 | 43.84559 | 35225 ft | 438 kts | 351° |
| 2026-05-07 18:24 | 49.82563 | 43.83725 | 35440 ft | 437 kts | 350° |
| 2026-05-07 18:24 | 49.85550 | 43.82892 | 35640 ft | 437 kts | 350° |
| 2026-05-07 18:25 | 49.88553 | 43.82054 | 35820 ft | 437 kts | 350° |
| 2026-05-07 18:25 | 49.91533 | 43.81223 | 35960 ft | 438 kts | 350° |
| 2026-05-07 18:25 | 49.94546 | 43.80382 | 35977 ft | 438 kts | 350° |
| 2026-05-07 18:26 | 50.00557 | 43.78705 | 35977 ft | 438 kts | 350° |
| 2026-05-07 18:26 | 50.06559 | 43.77016 | 35975 ft | 438 kts | 350° |
| 2026-05-07 18:27 | 50.12557 | 43.75324 | 35976 ft | 438 kts | 350° |
| 2026-05-07 18:27 | 50.18564 | 43.73625 | 35979 ft | 438 kts | 350° |
| 2026-05-07 18:28 | 50.24567 | 43.71930 | 35982 ft | 439 kts | 350° |
| 2026-05-07 18:28 | 50.30582 | 43.70238 | 35991 ft | 439 kts | 350° |
| 2026-05-07 18:29 | 50.36596 | 43.68526 | 35991 ft | 440 kts | 350° |
| 2026-05-07 18:29 | 50.42593 | 43.66801 | 35993 ft | 440 kts | 350° |
| 2026-05-07 18:30 | 50.48614 | 43.65073 | 35994 ft | 440 kts | 350° |
| 2026-05-07 18:30 | 50.54673 | 43.63341 | 35985 ft | 440 kts | 350° |
| 2026-05-07 18:31 | 50.60668 | 43.61624 | 35991 ft | 440 kts | 350° |
| 2026-05-07 18:31 | 50.66688 | 43.59896 | 35987 ft | 440 kts | 349° |
| 2026-05-07 18:32 | 50.72726 | 43.58154 | 35986 ft | 441 kts | 349° |
| 2026-05-07 18:32 | 50.78752 | 43.56402 | 35989 ft | 441 kts | 349° |
| 2026-05-07 18:33 | 50.84797 | 43.54653 | 35989 ft | 441 kts | 349° |
| 2026-05-07 18:33 | 50.90838 | 43.52902 | 35989 ft | 442 kts | 349° |
| 2026-05-07 18:34 | 50.96883 | 43.51136 | 35987 ft | 442 kts | 349° |
| 2026-05-07 18:34 | 51.02895 | 43.49075 | 35988 ft | 442 kts | 346° |
| 2026-05-07 18:35 | 51.08849 | 43.46642 | 35986 ft | 442 kts | 345° |
| 2026-05-07 18:35 | 51.14804 | 43.44179 | 35985 ft | 442 kts | 346° |
| 2026-05-07 18:36 | 51.20736 | 43.41813 | 35987 ft | 442 kts | 346° |
| 2026-05-07 18:36 | 51.26711 | 43.39476 | 35987 ft | 442 kts | 346° |
| 2026-05-07 18:37 | 51.32683 | 43.37119 | 35984 ft | 442 kts | 346° |
| 2026-05-07 18:37 | 51.38648 | 43.34733 | 35985 ft | 442 kts | 346° |
| 2026-05-07 18:38 | 51.44622 | 43.32344 | 35982 ft | 442 kts | 346° |
| 2026-05-07 18:38 | 51.50644 | 43.29939 | 35984 ft | 442 kts | 346° |
| 2026-05-07 18:39 | 51.56584 | 43.27569 | 35987 ft | 442 kts | 346° |
| 2026-05-07 18:39 | 51.62556 | 43.25163 | 35985 ft | 442 kts | 346° |
| 2026-05-07 18:40 | 51.68529 | 43.22747 | 35983 ft | 442 kts | 346° |
| 2026-05-07 18:40 | 51.74503 | 43.20335 | 35981 ft | 442 kts | 346° |
| 2026-05-07 18:41 | 51.80473 | 43.17924 | 35985 ft | 443 kts | 346° |
| 2026-05-07 18:41 | 51.86446 | 43.15484 | 35983 ft | 443 kts | 345° |
| 2026-05-07 18:42 | 51.92414 | 43.13042 | 35983 ft | 443 kts | 345° |
| 2026-05-07 18:42 | 51.98399 | 43.10606 | 35981 ft | 443 kts | 345° |
| 2026-05-07 18:43 | 52.04366 | 43.08171 | 35982 ft | 442 kts | 345° |
| 2026-05-07 18:43 | 52.10334 | 43.05708 | 35979 ft | 442 kts | 345° |
| 2026-05-07 18:44 | 52.16298 | 43.03251 | 35976 ft | 442 kts | 345° |
| 2026-05-07 18:44 | 52.22263 | 43.00782 | 35979 ft | 442 kts | 345° |
| 2026-05-07 18:45 | 52.28230 | 42.98305 | 35977 ft | 443 kts | 345° |
| 2026-05-07 18:45 | 52.34197 | 42.95829 | 35977 ft | 443 kts | 345° |
| 2026-05-07 18:46 | 52.40146 | 42.93365 | 35982 ft | 443 kts | 345° |
| 2026-05-07 18:46 | 52.46114 | 42.90857 | 35982 ft | 443 kts | 345° |
| 2026-05-07 18:47 | 52.52087 | 42.88339 | 35981 ft | 443 kts | 345° |
| 2026-05-07 18:47 | 52.58062 | 42.85825 | 35978 ft | 443 kts | 345° |
| 2026-05-07 18:48 | 52.64035 | 42.83304 | 35974 ft | 443 kts | 345° |
| 2026-05-07 18:48 | 52.70003 | 42.80778 | 35973 ft | 443 kts | 345° |
| 2026-05-07 18:49 | 52.75970 | 42.78258 | 35977 ft | 443 kts | 345° |
| 2026-05-07 18:50 | 52.87421 | 42.73405 | 35975 ft | 443 kts | 345° |
| 2026-05-07 18:50 | 52.93388 | 42.70846 | 35977 ft | 443 kts | 345° |
| 2026-05-07 18:51 | 52.99314 | 42.68299 | 35974 ft | 443 kts | 345° |
| 2026-05-07 18:51 | 53.05282 | 42.65740 | 35977 ft | 443 kts | 345° |
| 2026-05-07 18:52 | 53.11260 | 42.63147 | 35972 ft | 443 kts | 345° |
| 2026-05-07 18:52 | 53.17218 | 42.60569 | 35970 ft | 443 kts | 345° |
| 2026-05-07 18:53 | 53.23185 | 42.57989 | 35967 ft | 443 kts | 345° |
| 2026-05-07 18:53 | 53.29149 | 42.55399 | 35970 ft | 443 kts | 345° |
| 2026-05-07 18:54 | 53.35124 | 42.52781 | 35971 ft | 443 kts | 345° |
| 2026-05-07 18:54 | 53.41065 | 42.50185 | 35936 ft | 434 kts | 345° |
| 2026-05-07 18:55 | 53.46879 | 42.47801 | 35941 ft | 430 kts | 354° |
| 2026-05-07 18:55 | 53.49861 | 42.47912 | 35953 ft | 431 kts | 11° |
| 2026-05-07 18:55 | 53.52675 | 42.49458 | 35951 ft | 433 kts | 27° |
| 2026-05-07 18:55 | 53.55150 | 42.52313 | 35942 ft | 435 kts | 44° |
| 2026-05-07 18:56 | 53.57066 | 42.56263 | 35940 ft | 439 kts | 60° |
| 2026-05-07 18:56 | 53.58261 | 42.61006 | 35941 ft | 444 kts | 76° |
| 2026-05-07 18:56 | 53.58601 | 42.66172 | 35950 ft | 448 kts | 94° |
| 2026-05-07 18:56 | 53.58024 | 42.71311 | 35941 ft | 451 kts | 111° |
| 2026-05-07 18:57 | 53.56558 | 42.75977 | 35938 ft | 455 kts | 129° |
| 2026-05-07 18:57 | 53.54314 | 42.79736 | 35938 ft | 457 kts | 146° |
| 2026-05-07 18:57 | 53.51515 | 42.82222 | 35948 ft | 458 kts | 161° |
| 2026-05-07 18:58 | 53.45348 | 42.85278 | 35950 ft | 466 kts | 167° |
| 2026-05-07 18:58 | 53.38977 | 42.87460 | 35925 ft | 466 kts | 180° |
| 2026-05-07 18:58 | 53.35785 | 42.86870 | 35960 ft | 463 kts | 197° |
| 2026-05-07 18:59 | 53.32810 | 42.84812 | 35941 ft | 461 kts | 213° |
| 2026-05-07 18:59 | 53.30311 | 42.81508 | 35944 ft | 459 kts | 229° |
| 2026-05-07 18:59 | 53.28510 | 42.77130 | 35958 ft | 457 kts | 247° |
| 2026-05-07 18:59 | 53.27598 | 42.72075 | 35943 ft | 455 kts | 264° |
| 2026-05-07 19:00 | 53.27631 | 42.66829 | 35943 ft | 453 kts | 281° |
| 2026-05-07 19:00 | 53.28574 | 42.61841 | 35935 ft | 451 kts | 298° |
| 2026-05-07 19:00 | 53.30338 | 42.57525 | 35931 ft | 450 kts | 314° |
| 2026-05-07 19:00 | 53.32767 | 42.54252 | 35926 ft | 451 kts | 331° |
| 2026-05-07 19:01 | 53.35652 | 42.52234 | 35930 ft | 451 kts | 341° |
| 2026-05-07 19:01 | 53.41694 | 42.49450 | 35925 ft | 455 kts | 346° |
| 2026-05-07 19:02 | 53.47602 | 42.45889 | 35915 ft | 452 kts | 321° |
| 2026-05-07 19:02 | 53.49724 | 42.42074 | 35919 ft | 449 kts | 300° |
| 2026-05-07 19:02 | 53.50889 | 42.37250 | 35919 ft | 448 kts | 279° |
| 2026-05-07 19:03 | 53.51022 | 42.26794 | 35920 ft | 450 kts | 270° |
| 2026-05-07 19:03 | 53.51228 | 42.16285 | 35912 ft | 451 kts | 283° |
| 2026-05-07 19:04 | 53.52955 | 42.06137 | 35928 ft | 452 kts | 287° |
| 2026-05-07 19:04 | 53.54724 | 41.95958 | 35938 ft | 454 kts | 286° |
| 2026-05-07 19:05 | 53.56474 | 41.85769 | 35951 ft | 454 kts | 286° |
| 2026-05-07 19:05 | 53.58222 | 41.75529 | 35964 ft | 455 kts | 286° |
| 2026-05-07 19:06 | 53.59954 | 41.65292 | 35968 ft | 455 kts | 286° |
| 2026-05-07 19:06 | 53.62547 | 41.49934 | 35969 ft | 455 kts | 286° |
| 2026-05-07 19:07 | 53.64261 | 41.39737 | 35970 ft | 454 kts | 286° |
| 2026-05-07 19:07 | 53.65969 | 41.29499 | 35972 ft | 454 kts | 286° |
| 2026-05-07 19:08 | 53.67667 | 41.19219 | 35969 ft | 454 kts | 285° |
| 2026-05-07 19:08 | 53.69350 | 41.08945 | 35974 ft | 454 kts | 285° |
| 2026-05-07 19:09 | 53.71332 | 40.98862 | 35968 ft | 453 kts | 294° |
| 2026-05-07 19:09 | 53.73873 | 40.89148 | 35973 ft | 453 kts | 294° |
| 2026-05-07 19:10 | 53.75136 | 40.84251 | 35870 ft | 453 kts | 293° |
| 2026-05-07 19:10 | 53.76380 | 40.79394 | 35531 ft | 449 kts | 293° |
| 2026-05-07 19:10 | 53.77616 | 40.74558 | 35098 ft | 445 kts | 293° |
| 2026-05-07 19:10 | 53.78839 | 40.69783 | 34681 ft | 442 kts | 294° |
| 2026-05-07 19:11 | 53.80059 | 40.65029 | 34293 ft | 438 kts | 294° |
| 2026-05-07 19:11 | 53.81264 | 40.60320 | 33926 ft | 435 kts | 294° |
| 2026-05-07 19:11 | 53.82460 | 40.55638 | 33527 ft | 432 kts | 293° |
| 2026-05-07 19:11 | 53.83649 | 40.50966 | 33117 ft | 434 kts | 293° |
| 2026-05-07 19:12 | 53.84850 | 40.46241 | 32708 ft | 438 kts | 293° |
| 2026-05-07 19:12 | 53.86036 | 40.41558 | 32320 ft | 438 kts | 293° |
| 2026-05-07 19:12 | 53.87229 | 40.36829 | 31925 ft | 435 kts | 293° |
| 2026-05-07 19:12 | 53.88417 | 40.32115 | 31540 ft | 438 kts | 293° |
| 2026-05-07 19:13 | 53.89634 | 40.27298 | 31164 ft | 448 kts | 293° |
| 2026-05-07 19:13 | 53.90862 | 40.22444 | 30786 ft | 449 kts | 293° |
| 2026-05-07 19:13 | 53.92092 | 40.17568 | 30414 ft | 447 kts | 293° |
| 2026-05-07 19:13 | 53.93309 | 40.12734 | 30029 ft | 445 kts | 293° |
| 2026-05-07 19:14 | 53.94514 | 40.07924 | 29609 ft | 442 kts | 293° |
| 2026-05-07 19:14 | 53.95714 | 40.03124 | 29185 ft | 439 kts | 293° |
| 2026-05-07 19:14 | 53.96902 | 39.98361 | 28760 ft | 436 kts | 293° |
| 2026-05-07 19:14 | 53.98076 | 39.93648 | 28347 ft | 433 kts | 293° |
| 2026-05-07 19:15 | 53.99249 | 39.88942 | 27947 ft | 431 kts | 293° |
| 2026-05-07 19:15 | 54.00417 | 39.84255 | 27539 ft | 428 kts | 293° |
| 2026-05-07 19:15 | 54.01570 | 39.79617 | 27145 ft | 426 kts | 292° |
| 2026-05-07 19:15 | 54.02714 | 39.74988 | 26754 ft | 423 kts | 292° |
| 2026-05-07 19:16 | 54.03852 | 39.70374 | 26369 ft | 421 kts | 292° |
| 2026-05-07 19:16 | 54.04974 | 39.65810 | 25993 ft | 418 kts | 292° |
| 2026-05-07 19:16 | 54.06091 | 39.61253 | 25618 ft | 416 kts | 292° |
| 2026-05-07 19:16 | 54.07201 | 39.56710 | 25245 ft | 413 kts | 292° |
| 2026-05-07 19:17 | 54.08298 | 39.52214 | 24886 ft | 411 kts | 292° |
| 2026-05-07 19:17 | 54.09394 | 39.47729 | 24520 ft | 408 kts | 292° |
| 2026-05-07 19:17 | 54.10483 | 39.43270 | 24172 ft | 406 kts | 292° |
| 2026-05-07 19:17 | 54.11548 | 39.38898 | 23824 ft | 404 kts | 291° |
| 2026-05-07 19:18 | 54.12620 | 39.34488 | 23412 ft | 401 kts | 291° |
| 2026-05-07 19:18 | 54.13679 | 39.30117 | 22922 ft | 398 kts | 291° |
| 2026-05-07 19:18 | 54.14728 | 39.25770 | 22437 ft | 395 kts | 291° |
| 2026-05-07 19:18 | 54.15766 | 39.21464 | 21952 ft | 391 kts | 291° |
| 2026-05-07 19:19 | 54.16803 | 39.17163 | 21256 ft | 393 kts | 291° |
| 2026-05-07 19:19 | 54.17833 | 39.12882 | 20902 ft | 386 kts | 291° |
| 2026-05-07 19:19 | 54.18849 | 39.08639 | 20306 ft | 386 kts | 291° |
| 2026-05-07 19:19 | 54.19855 | 39.04416 | 19856 ft | 383 kts | 291° |
| 2026-05-07 19:20 | 54.20856 | 39.00210 | 19382 ft | 380 kts | 291° |
| 2026-05-07 19:20 | 54.21845 | 38.96057 | 19039 ft | 374 kts | 291° |
| 2026-05-07 19:20 | 54.23110 | 38.92155 | 18508 ft | 377 kts | 305° |
| 2026-05-07 19:20 | 54.24908 | 38.88963 | 18269 ft | 372 kts | 319° |
| 2026-05-07 19:21 | 54.27077 | 38.86659 | 18150 ft | 363 kts | 330° |
| 2026-05-07 19:21 | 54.29305 | 38.84768 | 17922 ft | 352 kts | 330° |
| 2026-05-07 19:21 | 54.31482 | 38.82914 | 17535 ft | 348 kts | 330° |
| 2026-05-07 19:21 | 54.33636 | 38.81070 | 17088 ft | 345 kts | 330° |
| 2026-05-07 19:22 | 54.35755 | 38.79256 | 16637 ft | 343 kts | 330° |
| 2026-05-07 19:22 | 54.37883 | 38.77435 | 16172 ft | 341 kts | 330° |
| 2026-05-07 19:22 | 54.40011 | 38.75613 | 15709 ft | 340 kts | 330° |
| 2026-05-07 19:22 | 54.42119 | 38.73809 | 15243 ft | 338 kts | 330° |
| 2026-05-07 19:23 | 54.44223 | 38.72004 | 14807 ft | 336 kts | 330° |
| 2026-05-07 19:23 | 54.46313 | 38.70206 | 14369 ft | 335 kts | 330° |
| 2026-05-07 19:23 | 54.48385 | 38.68418 | 13950 ft | 334 kts | 330° |
| 2026-05-07 19:23 | 54.50458 | 38.66628 | 13504 ft | 333 kts | 330° |
| 2026-05-07 19:24 | 54.52523 | 38.64846 | 13121 ft | 329 kts | 330° |
| 2026-05-07 19:24 | 54.54556 | 38.63091 | 12802 ft | 326 kts | 330° |
| 2026-05-07 19:24 | 54.56583 | 38.61341 | 12493 ft | 325 kts | 330° |
| 2026-05-07 19:24 | 54.58592 | 38.59605 | 12184 ft | 323 kts | 330° |
| 2026-05-07 19:25 | 54.60600 | 38.57870 | 11871 ft | 319 kts | 330° |
| 2026-05-07 19:25 | 54.62574 | 38.56164 | 11576 ft | 314 kts | 330° |
| 2026-05-07 19:25 | 54.64509 | 38.54483 | 11279 ft | 309 kts | 329° |
| 2026-05-07 19:25 | 54.66412 | 38.52826 | 10985 ft | 305 kts | 329° |
| 2026-05-07 19:26 | 54.68294 | 38.51188 | 10686 ft | 301 kts | 329° |
| 2026-05-07 19:26 | 54.70150 | 38.49564 | 10395 ft | 297 kts | 329° |
| 2026-05-07 19:26 | 54.71987 | 38.47956 | 10106 ft | 293 kts | 329° |
| 2026-05-07 19:26 | 54.73190 | 38.46903 | 9913 ft | 291 kts | 329° |
| 2026-05-07 19:27 | 54.74983 | 38.45341 | 9615 ft | 288 kts | 330° |
| 2026-05-07 19:27 | 54.77341 | 38.43301 | 9202 ft | 284 kts | 330° |
| 2026-05-07 19:27 | 54.78533 | 38.42271 | 8876 ft | 286 kts | 329° |
| 2026-05-07 19:27 | 54.80329 | 38.40709 | 8317 ft | 292 kts | 329° |
| 2026-05-07 19:28 | 54.82158 | 38.39113 | 7737 ft | 293 kts | 329° |
| 2026-05-07 19:28 | 54.83966 | 38.37538 | 7174 ft | 292 kts | 329° |
| 2026-05-07 19:28 | 54.85779 | 38.35963 | 6609 ft | 291 kts | 329° |
| 2026-05-07 19:28 | 54.87581 | 38.34385 | 6119 ft | 287 kts | 329° |
| 2026-05-07 19:29 | 54.89317 | 38.32861 | 5985 ft | 270 kts | 329° |
| 2026-05-07 19:29 | 54.90935 | 38.31437 | 5995 ft | 256 kts | 328° |
| 2026-05-07 19:29 | 54.92511 | 38.30039 | 5999 ft | 255 kts | 328° |
| 2026-05-07 19:29 | 54.94093 | 38.28630 | 5998 ft | 255 kts | 328° |
| 2026-05-07 19:30 | 54.95652 | 38.27248 | 5994 ft | 255 kts | 328° |
| 2026-05-07 19:30 | 54.97235 | 38.25852 | 5996 ft | 255 kts | 328° |
| 2026-05-07 19:30 | 54.98837 | 38.24435 | 5994 ft | 255 kts | 328° |
| 2026-05-07 19:30 | 55.00401 | 38.23047 | 5999 ft | 255 kts | 328° |
| 2026-05-07 19:31 | 55.01977 | 38.21647 | 5999 ft | 255 kts | 328° |
| 2026-05-07 19:31 | 55.03567 | 38.20250 | 5993 ft | 256 kts | 331° |
| 2026-05-07 19:31 | 55.05312 | 38.19522 | 5996 ft | 264 kts | 353° |
| 2026-05-07 19:31 | 55.07152 | 38.19361 | 5999 ft | 265 kts | 353° |
| 2026-05-07 19:32 | 55.08992 | 38.19219 | 5993 ft | 265 kts | 353° |
| 2026-05-07 19:32 | 55.10838 | 38.19083 | 5993 ft | 266 kts | 353° |
| 2026-05-07 19:32 | 55.12685 | 38.18949 | 5991 ft | 266 kts | 353° |
| 2026-05-07 19:32 | 55.14532 | 38.18815 | 5985 ft | 266 kts | 353° |
| 2026-05-07 19:33 | 55.16377 | 38.18675 | 5984 ft | 266 kts | 353° |
| 2026-05-07 19:33 | 55.18229 | 38.18508 | 5989 ft | 264 kts | 348° |
| 2026-05-07 19:33 | 55.19973 | 38.17689 | 5986 ft | 259 kts | 336° |
| 2026-05-07 19:33 | 55.21675 | 38.16649 | 5989 ft | 259 kts | 336° |
| 2026-05-07 19:34 | 55.23379 | 38.15604 | 5985 ft | 260 kts | 336° |
| 2026-05-07 19:34 | 55.25086 | 38.14553 | 5984 ft | 260 kts | 336° |
| 2026-05-07 19:34 | 55.26788 | 38.13503 | 5980 ft | 260 kts | 335° |
| 2026-05-07 19:34 | 55.28492 | 38.12449 | 5982 ft | 260 kts | 335° |
| 2026-05-07 19:35 | 55.30199 | 38.11392 | 5985 ft | 260 kts | 335° |
| 2026-05-07 19:35 | 55.31906 | 38.10337 | 5982 ft | 260 kts | 335° |
| 2026-05-07 19:35 | 55.33611 | 38.09281 | 5980 ft | 260 kts | 335° |
| 2026-05-07 19:35 | 55.35295 | 38.08238 | 5980 ft | 260 kts | 335° |
| 2026-05-07 19:36 | 55.37029 | 38.07161 | 5670 ft | 262 kts | 336° |
| 2026-05-07 19:36 | 55.38738 | 38.06099 | 5474 ft | 258 kts | 336° |
| 2026-05-07 19:36 | 55.40425 | 38.05046 | 5274 ft | 257 kts | 336° |
| 2026-05-07 19:36 | 55.42075 | 38.04019 | 5083 ft | 252 kts | 336° |
| 2026-05-07 19:37 | 55.43701 | 38.03011 | 4973 ft | 247 kts | 336° |
| 2026-05-07 19:37 | 55.45217 | 38.01699 | 4974 ft | 241 kts | 321° |
| 2026-05-07 19:37 | 55.46612 | 38.00006 | 4979 ft | 246 kts | 321° |
| 2026-05-07 19:37 | 55.48010 | 37.98309 | 5040 ft | 244 kts | 321° |
| 2026-05-07 19:38 | 55.49394 | 37.96631 | 5006 ft | 239 kts | 320° |
| 2026-05-07 19:38 | 55.50761 | 37.94970 | 4999 ft | 239 kts | 320° |
| 2026-05-07 19:38 | 55.52132 | 37.93300 | 5012 ft | 239 kts | 320° |
| 2026-05-07 19:38 | 55.53492 | 37.91639 | 5002 ft | 238 kts | 320° |
| 2026-05-07 19:39 | 55.54856 | 37.89969 | 4837 ft | 238 kts | 320° |
| 2026-05-07 19:39 | 55.56211 | 37.88311 | 4471 ft | 237 kts | 321° |
| 2026-05-07 19:39 | 55.57560 | 37.86665 | 4170 ft | 234 kts | 321° |
| 2026-05-07 19:39 | 55.58862 | 37.85072 | 4081 ft | 221 kts | 319° |
| 2026-05-07 19:40 | 55.59784 | 37.83079 | 3986 ft | 201 kts | 285° |
| 2026-05-07 19:40 | 55.59898 | 37.80764 | 3868 ft | 184 kts | 254° |
| 2026-05-07 19:40 | 55.59350 | 37.78790 | 3696 ft | 179 kts | 234° |
| 2026-05-07 19:40 | 55.58651 | 37.76968 | 3497 ft | 180 kts | 234° |
| 2026-05-07 19:41 | 55.57950 | 37.75135 | 3306 ft | 180 kts | 234° |
| 2026-05-07 19:41 | 55.57247 | 37.73295 | 3186 ft | 181 kts | 233° |
| 2026-05-07 19:41 | 55.56358 | 37.71768 | 3110 ft | 180 kts | 204° |
| 2026-05-07 19:41 | 55.55127 | 37.71706 | 2995 ft | 184 kts | 160° |
| 2026-05-07 19:42 | 55.54021 | 37.72893 | 2840 ft | 186 kts | 149° |
| 2026-05-07 19:42 | 55.52943 | 37.74139 | 2691 ft | 185 kts | 148° |
| 2026-05-07 19:42 | 55.51873 | 37.75414 | 2542 ft | 185 kts | 148° |
| 2026-05-07 19:42 | 55.50847 | 37.76652 | 2395 ft | 172 kts | 148° |
| 2026-05-07 19:43 | 55.49887 | 37.77813 | 2309 ft | 161 kts | 148° |
| 2026-05-07 19:43 | 55.48986 | 37.78904 | 2148 ft | 154 kts | 148° |
| 2026-05-07 19:43 | 55.48109 | 37.79964 | 2063 ft | 152 kts | 147° |
| 2026-05-07 19:43 | 55.47252 | 37.80999 | 2007 ft | 151 kts | 140° |
| 2026-05-07 19:44 | 55.46357 | 37.82056 | 1699 ft | 153 kts | 152° |
| 2026-05-07 19:44 | 55.45511 | 37.83085 | 1486 ft | 150 kts | 145° |
| 2026-05-07 19:44 | 55.44667 | 37.84161 | 1276 ft | 150 kts | 147° |
| 2026-05-07 19:44 | 55.43799 | 37.85175 | 1032 ft | 149 kts | 146° |
| 2026-05-07 19:45 | 55.42939 | 37.86207 | 832 ft | 149 kts | 140° |
| 2026-05-07 19:45 | 55.42084 | 37.87243 | 635 ft | 150 kts | 142° |
| 2026-05-07 19:45 | 55.41310 | 37.88177 | 584 ft | 113 kts | 145° |
| 2026-05-07 19:45 | 55.40801 | 37.88793 | 576 ft | 64 kts | 145° |
| 2026-05-07 19:46 | 55.40511 | 37.89142 | 566 ft | 37 kts | 137° |
| 2026-05-07 19:46 | 55.40431 | 37.89381 | 571 ft | 18 kts | 120° |
| 2026-05-07 19:46 | 55.40390 | 37.89556 | 567 ft | 13 kts | 77° |
| 2026-05-07 19:46 | 55.40449 | 37.89573 | 570 ft | 9 kts | 333° |
| 2026-05-07 19:47 | 55.40502 | 37.89514 | 571 ft | 9 kts | 325° |
| 2026-05-07 19:47 | 55.40552 | 37.89452 | 570 ft | 10 kts | 324° |
| 2026-05-07 19:47 | 55.40619 | 37.89369 | 567 ft | 13 kts | 328° |
| 2026-05-07 19:47 | 55.40706 | 37.89270 | 569 ft | 16 kts | 334° |
| 2026-05-07 19:48 | 55.40779 | 37.89353 | 576 ft | 15 kts | 53° |
| 2026-05-07 19:48 | 55.40856 | 37.89530 | 573 ft | 19 kts | 41° |
| 2026-05-07 19:48 | 55.40939 | 37.89721 | 570 ft | 20 kts | 54° |
| 2026-05-07 19:48 | 55.41011 | 37.89859 | 569 ft | 14 kts | 13° |
| 2026-05-07 19:49 | 55.41069 | 37.89803 | 572 ft | 8 kts | 325° |
| 2026-05-07 19:49 | 55.41107 | 37.89757 | 576 ft | 5 kts | 325° |
| 2026-05-07 19:49 | 55.41133 | 37.89727 | 576 ft | 5 kts | 329° |
| 2026-05-07 19:49 | 55.41153 | 37.89719 | 584 ft | 2 kts | 7° |
| 2026-05-07 19:50 | 55.41166 | 37.89748 | 576 ft | 6 kts | 44° |
| 2026-05-07 19:50 | 55.41205 | 37.89781 | 579 ft | 6 kts | 16° |
| 2026-05-07 19:50 | 55.41235 | 37.89812 | 578 ft | 5 kts | 33° |
| 2026-05-07 19:50 | 55.41248 | 37.89843 | 580 ft | 3 kts | 70° |
| 2026-05-07 19:51 | 55.41253 | 37.89861 | 578 ft | 2 kts | 65° |